Time;durP1;ratioP1;P1;durP2;ratioP2;P2;SDS_P1;SDS_P2;PMS_P1;PMS_P2;Temp;Humidity;BMP_temperature;BMP_pressure;BME280_temperature;BME280_humidity;BME280_pressure;Samples;Min_cycle;Max_cycle;Signal;HPM_P1;HPM_P2
2022/10/20 00:00:23;;;;;;;47.60;16.05;;;;;;;6.70;68.36;99527.31;5060240;28;20028;-75
2022/10/20 00:02:49;;;;;;;59.80;19.77;;;;;;;6.67;68.63;99530.53;5056424;28;20035;-76
2022/10/20 00:05:16;;;;;;;53.10;18.17;;;;;;;6.66;68.54;99528.88;5069303;28;20032;-76
2022/10/20 00:07:41;;;;;;;56.13;19.60;;;;;;;6.64;68.36;99522.84;5059529;28;20112;-76
2022/10/20 00:10:07;;;;;;;70.75;23.48;;;;;;;6.62;68.55;99530.44;5058339;28;20127;-76
2022/10/20 00:12:32;;;;;;;72.40;24.33;;;;;;;6.59;68.31;99530.91;5057043;28;20033;-76
2022/10/20 00:14:58;;;;;;;60.25;21.38;;;;;;;6.55;68.43;99525.94;5059160;28;20032;-76
2022/10/20 00:17:23;;;;;;;28.23;12.30;;;;;;;6.55;68.55;99525.09;5063047;28;20032;-76
2022/10/20 00:19:49;;;;;;;28.02;11.10;;;;;;;6.49;68.20;99531.56;5065137;28;20025;-76
2022/10/20 00:22:15;;;;;;;25.60;11.82;;;;;;;6.45;68.19;99533.09;5062653;28;20017;-76
2022/10/20 00:24:40;;;;;;;15.88;9.43;;;;;;;6.38;68.20;99535.94;5066415;28;20036;-75
2022/10/20 00:27:06;;;;;;;24.77;11.70;;;;;;;6.36;68.31;99529.91;5045431;28;20413;-76
2022/10/20 00:29:31;;;;;;;36.28;15.23;;;;;;;6.31;68.22;99532.56;5060441;28;20048;-76
2022/10/20 00:31:57;;;;;;;21.75;10.60;;;;;;;6.27;68.26;99523.22;5027686;28;20079;-76
2022/10/20 00:34:22;;;;;;;22.13;10.82;;;;;;;6.24;68.10;99527.22;5043329;28;20088;-76
2022/10/20 00:36:48;;;;;;;20.15;9.70;;;;;;;6.22;68.13;99532.09;5045628;28;20088;-76
2022/10/20 00:39:13;;;;;;;17.77;8.95;;;;;;;6.19;68.48;99527.13;5039714;28;20642;-76
2022/10/20 00:41:38;;;;;;;19.48;9.07;;;;;;;6.14;68.54;99519.69;5045228;28;20037;-76
2022/10/20 00:44:41;;;;;;;16.63;8.23;;;;;;;6.10;68.05;99523.97;5046832;28;20018;-76
2022/10/20 00:47:17;;;;;;;15.05;7.78;;;;;;;6.06;68.21;99530.94;5040241;28;20036;-76
2022/10/20 00:49:43;;;;;;;14.85;7.65;;;;;;;6.03;68.23;99521.38;5044052;28;20044;-76
2022/10/20 00:52:09;;;;;;;14.82;7.82;;;;;;;6.01;68.18;99522.66;5044415;28;20080;-76
2022/10/20 00:54:35;;;;;;;13.27;7.78;;;;;;;5.95;68.58;99514.34;5038542;28;20106;-76
2022/10/20 00:57:01;;;;;;;17.52;8.00;;;;;;;5.95;67.87;99521.72;5042232;28;20514;-76
2022/10/20 00:59:34;;;;;;;11.63;7.95;;;;;;;5.94;68.51;99518.13;5044261;28;20036;-76
2022/10/20 01:02:01;;;;;;;13.85;8.40;;;;;;;5.91;68.43;99521.34;5045566;28;20032;-76
2022/10/20 01:04:29;;;;;;;12.07;7.47;;;;;;;5.88;68.18;99519.13;5041255;28;20025;-76
2022/10/20 01:06:55;;;;;;;10.77;7.32;;;;;;;5.83;68.19;99521.72;5042865;28;20041;-76
2022/10/20 01:09:20;;;;;;;11.68;7.20;;;;;;;5.78;67.97;99521.63;5031223;28;20032;-76
2022/10/20 01:12:10;;;;;;;20.65;8.85;;;;;;;5.72;68.30;99517.94;5049076;28;20029;-76
2022/10/20 01:15:01;;;;;;;14.85;7.95;;;;;;;5.70;67.84;99520.09;5047547;28;20471;-76
2022/10/20 01:17:45;;;;;;;12.15;7.68;;;;;;;5.70;68.51;99513.81;5050167;28;20446;-76
2022/10/20 01:20:10;;;;;;;10.73;7.18;;;;;;;5.69;68.53;99517.59;5051874;28;20037;-76
2022/10/20 01:22:38;;;;;;;11.70;7.70;;;;;;;5.64;68.34;99512.88;5046349;28;20091;-76
2022/10/20 01:25:04;;;;;;;10.70;7.15;;;;;;;5.64;68.15;99515.59;5048659;28;20714;-77
2022/10/20 01:27:45;;;;;;;11.13;7.38;;;;;;;5.61;68.40;99521.50;5043998;28;20025;-76
2022/10/20 01:30:20;;;;;;;10.50;7.20;;;;;;;5.57;68.02;99512.97;5024625;28;20123;-76
2022/10/20 01:33:33;;;;;;;13.43;7.65;;;;;;;5.54;68.03;99508.00;5043334;28;20032;-77
2022/10/20 01:36:10;;;;;;;10.90;7.55;;;;;;;5.53;68.30;99505.53;4989836;28;20141;-76
2022/10/20 01:38:42;;;;;;;13.77;8.77;;;;;;;5.49;67.93;99508.72;5039762;28;20052;-76
2022/10/20 01:41:32;;;;;;;14.18;7.97;;;;;;;5.50;68.58;99510.38;5051025;28;20479;-77
2022/10/20 01:44:00;;;;;;;14.55;8.55;;;;;;;5.50;67.94;99513.09;5040635;28;20017;-76
2022/10/20 01:46:26;;;;;;;14.43;8.38;;;;;;;5.50;68.28;99506.84;5038883;28;20091;-77
2022/10/20 01:48:54;;;;;;;12.02;7.63;;;;;;;5.51;68.83;99513.91;5040335;28;20052;-77
2022/10/20 01:51:19;;;;;;;12.18;7.07;;;;;;;5.48;68.40;99515.22;5043563;28;20021;-77
2022/10/20 01:53:44;;;;;;;15.18;8.90;;;;;;;5.49;68.30;99510.63;5049318;28;20441;-77
2022/10/20 01:56:19;;;;;;;39.22;14.20;;;;;;;5.48;69.03;99517.16;5048617;28;20121;-77
2022/10/20 01:58:53;;;;;;;23.80;10.60;;;;;;;5.45;68.58;99510.25;5044079;28;20116;-77
2022/10/20 02:01:24;;;;;;;28.70;11.02;;;;;;;5.42;68.08;99510.72;5035000;28;20029;-77
2022/10/20 02:03:59;;;;;;;25.92;10.90;;;;;;;5.39;68.55;99515.84;5021270;28;20028;-77
2022/10/20 02:06:50;;;;;;;25.40;10.43;;;;;;;5.35;68.57;99513.56;5039949;28;20471;-76
2022/10/20 02:09:22;;;;;;;20.58;9.77;;;;;;;5.39;68.35;99515.84;5048405;28;20100;-76
2022/10/20 02:11:58;;;;;;;21.63;9.60;;;;;;;5.35;68.18;99516.31;5047219;28;20028;-77
2022/10/20 02:14:24;;;;;;;18.00;8.57;;;;;;;5.34;68.55;99517.38;5046737;28;20036;-77
2022/10/20 02:16:58;;;;;;;15.90;8.63;;;;;;;5.32;68.82;99505.88;5037050;28;20526;-77
2022/10/20 02:19:28;;;;;;;16.80;9.13;;;;;;;5.32;68.66;99511.31;5035522;28;20025;-77
2022/10/20 02:21:56;;;;;;;15.02;8.60;;;;;;;5.29;68.08;99506.34;5043694;28;20017;-76
2022/10/20 02:24:26;;;;;;;13.55;8.57;;;;;;;5.28;68.22;99512.84;5032703;28;20399;-76
2022/10/20 02:26:54;;;;;;;14.73;9.80;;;;;;;5.26;68.24;99520.44;5061041;28;20017;-76
2022/10/20 02:29:27;;;;;;;23.55;12.80;;;;;;;5.25;68.67;99510.59;5067001;28;20029;-77
2022/10/20 02:31:54;;;;;;;15.52;9.55;;;;;;;5.22;68.65;99511.91;5057970;28;20056;-76
2022/10/20 02:34:19;;;;;;;18.00;11.30;;;;;;;5.20;68.16;99513.19;5090463;28;20036;-76
2022/10/20 02:36:45;;;;;;;20.52;11.38;;;;;;;5.18;68.42;99513.44;5092179;28;20035;-77
2022/10/20 02:39:10;;;;;;;17.15;10.48;;;;;;;5.16;68.25;99518.28;5091773;28;20081;-77
2022/10/20 02:41:36;;;;;;;15.88;10.00;;;;;;;5.16;68.20;99520.16;5073391;28;20031;-76
2022/10/20 02:44:03;;;;;;;14.75;9.13;;;;;;;5.15;68.64;99511.19;5070850;28;20123;-77
2022/10/20 02:46:28;;;;;;;12.68;8.90;;;;;;;5.13;68.58;99512.47;5071907;28;20385;-76
2022/10/20 02:48:54;;;;;;;14.90;9.73;;;;;;;5.12;68.62;99510.81;5070695;28;20037;-76
2022/10/20 02:51:19;;;;;;;11.65;8.65;;;;;;;5.08;68.31;99507.75;5071640;28;20384;-76
2022/10/20 02:53:45;;;;;;;13.30;9.32;;;;;;;5.08;68.69;99513.19;5071239;28;20021;-76
2022/10/20 02:56:11;;;;;;;12.30;9.25;;;;;;;5.06;68.38;99516.16;5071890;28;20047;-76
2022/10/20 02:58:36;;;;;;;13.45;9.35;;;;;;;5.06;68.15;99520.75;5070273;28;20036;-76
2022/10/20 03:01:02;;;;;;;15.73;11.57;;;;;;;5.03;67.96;99527.50;5084775;28;20369;-76
2022/10/20 03:03:27;;;;;;;19.00;12.52;;;;;;;4.99;68.72;99531.75;5091122;28;20540;-76
2022/10/20 03:05:53;;;;;;;21.05;14.23;;;;;;;4.98;67.88;99532.81;5080610;28;20386;-76
2022/10/20 03:08:18;;;;;;;24.90;16.27;;;;;;;4.96;67.96;99526.78;5070605;28;20021;-76
2022/10/20 03:10:44;;;;;;;25.55;17.13;;;;;;;4.94;68.10;99530.75;5071118;28;20081;-76
2022/10/20 03:13:09;;;;;;;26.48;17.50;;;;;;;4.93;68.37;99529.94;5068599;28;20032;-76
2022/10/20 03:15:35;;;;;;;28.80;16.88;;;;;;;4.91;67.97;99535.59;5070982;28;20553;-76
2022/10/20 03:18:01;;;;;;;28.40;17.13;;;;;;;4.88;68.31;99529.81;5071589;28;20032;-76
2022/10/20 03:20:26;;;;;;;29.92;16.65;;;;;;;4.85;67.95;99531.13;5074066;28;20036;-76
2022/10/20 03:22:52;;;;;;;26.88;15.73;;;;;;;4.84;67.92;99532.19;5084364;28;20053;-76
2022/10/20 03:25:17;;;;;;;25.88;15.02;;;;;;;4.82;68.29;99526.16;5074073;28;20032;-75
2022/10/20 03:27:42;;;;;;;23.63;13.80;;;;;;;4.80;68.29;99530.97;5072931;28;21444;-75
2022/10/20 03:30:08;;;;;;;24.92;14.05;;;;;;;4.79;68.48;99533.91;5052137;28;20051;-75
2022/10/20 03:32:33;;;;;;;21.67;13.25;;;;;;;4.78;68.20;99538.53;5069378;28;20126;-75
2022/10/20 03:34:59;;;;;;;20.25;12.98;;;;;;;4.76;67.66;99533.31;5051907;28;20029;-76
2022/10/20 03:37:24;;;;;;;24.73;13.25;;;;;;;4.72;68.25;99534.03;5070698;28;20503;-76
2022/10/20 03:39:50;;;;;;;31.45;17.67;;;;;;;4.71;68.45;99540.53;5070571;28;20059;-75
2022/10/20 03:42:15;;;;;;;25.60;14.95;;;;;;;4.67;68.11;99537.44;5066905;28;20475;-76
2022/10/20 03:44:43;;;;;;;31.42;19.30;;;;;;;4.64;68.35;99529.75;5069978;28;20021;-76
2022/10/20 03:47:09;;;;;;;37.70;23.10;;;;;;;4.60;67.47;99528.56;5070802;28;20035;-76
2022/10/20 03:49:34;;;;;;;35.97;24.45;;;;;;;4.58;68.37;99525.22;5073549;28;20028;-76
2022/10/20 03:52:00;;;;;;;39.28;27.10;;;;;;;4.54;68.05;99524.84;5089566;28;20081;-75
2022/10/20 03:54:25;;;;;;;48.20;30.98;;;;;;;4.49;67.35;99527.44;5065575;28;20031;-75
2022/10/20 03:56:50;;;;;;;58.33;34.58;;;;;;;4.46;68.04;99519.75;5068859;28;20060;-75
2022/10/20 03:59:16;;;;;;;57.65;33.72;;;;;;;4.41;67.58;99527.75;5076330;28;20064;-76
2022/10/20 04:01:44;;;;;;;54.55;31.52;;;;;;;4.34;68.10;99527.84;5078156;28;20047;-76
2022/10/20 04:04:09;;;;;;;59.13;34.85;;;;;;;4.31;68.40;99525.56;5067639;28;20028;-75
2022/10/20 04:06:35;;;;;;;72.05;39.75;;;;;;;4.29;67.56;99527.69;5067732;28;20386;-76
2022/10/20 04:09:00;;;;;;;75.88;41.53;;;;;;;4.27;68.16;99527.94;5064081;28;20051;-76
2022/10/20 04:11:26;;;;;;;78.97;43.65;;;;;;;4.26;68.22;99523.56;5088023;28;20043;-76
2022/10/20 04:13:52;;;;;;;79.40;43.08;;;;;;;4.23;67.92;99532.16;5074113;28;20112;-76
2022/10/20 04:16:17;;;;;;;85.25;45.47;;;;;;;4.21;68.04;99517.97;5069905;28;20036;-76
2022/10/20 04:18:43;;;;;;;77.22;42.45;;;;;;;4.20;68.51;99526.38;5069199;28;20036;-76
2022/10/20 04:21:08;;;;;;;73.82;40.42;;;;;;;4.16;68.00;99526.81;5066630;28;20040;-76
2022/10/20 04:23:33;;;;;;;71.07;38.42;;;;;;;4.12;67.90;99531.03;5072298;28;20025;-76
2022/10/20 04:25:59;;;;;;;67.30;35.28;;;;;;;4.08;68.18;99521.69;5052434;28;20078;-76
2022/10/20 04:28:24;;;;;;;62.30;32.42;;;;;;;4.05;68.02;99524.84;5077587;28;20016;-77
2022/10/20 04:30:51;;;;;;;55.65;29.58;;;;;;;4.02;68.41;99519.88;5076623;28;20037;-76
2022/10/20 04:33:16;;;;;;;51.10;29.75;;;;;;;4.00;67.89;99521.97;5069520;28;20029;-76
2022/10/20 04:35:42;;;;;;;52.58;27.85;;;;;;;4.00;68.20;99516.56;5049654;28;20029;-76
2022/10/20 04:38:08;;;;;;;47.05;26.52;;;;;;;3.98;67.94;99527.66;5069962;28;20474;-76
2022/10/20 04:40:33;;;;;;;43.25;23.70;;;;;;;3.95;68.26;99522.69;5068513;28;20028;-76
2022/10/20 04:42:59;;;;;;;46.30;24.05;;;;;;;3.90;68.01;99524.38;5069343;28;20028;-76
2022/10/20 04:45:25;;;;;;;40.95;22.83;;;;;;;3.86;68.09;99522.16;5067423;28;20713;-76
2022/10/20 04:47:51;;;;;;;42.83;21.95;;;;;;;3.83;68.11;99525.31;5069824;28;20104;-76
2022/10/20 04:50:16;;;;;;;36.95;19.10;;;;;;;3.82;68.45;99528.25;5071082;28;20060;-76
2022/10/20 04:52:41;;;;;;;35.92;19.27;;;;;;;3.79;68.37;99526.81;5070007;28;20058;-76
2022/10/20 04:55:07;;;;;;;36.72;19.48;;;;;;;3.77;68.77;99528.09;5070103;28;20028;-76
2022/10/20 04:57:33;;;;;;;32.58;17.88;;;;;;;3.76;68.87;99521.00;5089930;28;20063;-77
2022/10/20 04:59:58;;;;;;;32.78;17.55;;;;;;;3.71;68.42;99522.50;5080509;28;20385;-76
2022/10/20 05:02:23;;;;;;;34.83;17.75;;;;;;;3.71;68.92;99514.38;5072585;28;20028;-76
2022/10/20 05:04:49;;;;;;;31.17;16.70;;;;;;;3.68;69.07;99517.53;5071957;28;20032;-76
2022/10/20 05:07:15;;;;;;;30.55;16.40;;;;;;;3.67;68.80;99518.56;5071817;28;20398;-77
2022/10/20 05:09:40;;;;;;;29.75;16.25;;;;;;;3.68;68.53;99505.84;5071671;28;20078;-77
2022/10/20 05:12:06;;;;;;;33.55;16.98;;;;;;;3.69;68.54;99510.22;5069253;28;20045;-75
2022/10/20 05:14:31;;;;;;;42.22;18.23;;;;;;;3.68;68.65;99506.66;5072175;28;20123;-76
2022/10/20 05:16:57;;;;;;;38.85;17.73;;;;;;;3.65;68.54;99509.00;5053447;28;20174;-76
2022/10/20 05:19:22;;;;;;;39.55;17.65;;;;;;;3.62;68.48;99514.88;5084744;28;20031;-76
2022/10/20 05:21:48;;;;;;;36.30;16.15;;;;;;;3.62;69.07;99517.59;5081316;28;20085;-77
2022/10/20 05:24:15;;;;;;;29.70;15.02;;;;;;;3.60;68.41;99519.72;5072884;28;20027;-77
2022/10/20 05:26:40;;;;;;;135.68;49.85;;;;;;;3.60;69.29;99525.13;5073628;28;20050;-77
2022/10/20 05:29:08;;;;;;;82.45;33.22;;;;;;;3.56;68.95;99517.44;5066799;28;20060;-77
2022/10/20 05:31:39;;;;;;;45.80;20.65;;;;;;;3.54;69.17;99524.16;5080684;28;20059;-73
2022/10/20 05:34:05;;;;;;;29.58;15.60;;;;;;;3.49;69.06;99526.69;5074205;28;20513;-76
2022/10/20 05:36:31;;;;;;;30.42;14.93;;;;;;;3.45;68.51;99528.19;5068873;28;20033;-72
2022/10/20 05:38:56;;;;;;;25.52;14.15;;;;;;;3.45;68.31;99533.63;5069148;28;20474;-74
2022/10/20 05:41:27;;;;;;;30.40;14.55;;;;;;;3.43;68.91;99536.56;5080798;28;20039;-73
2022/10/20 05:43:58;;;;;;;27.35;13.55;;;;;;;3.46;68.53;99532.56;5092143;28;20500;-73
2022/10/20 05:46:26;;;;;;;29.92;14.85;;;;;;;3.49;69.22;99540.25;5081034;28;20078;-73
2022/10/20 05:48:55;;;;;;;28.08;14.73;;;;;;;3.49;68.60;99538.38;5071151;28;20537;-73
2022/10/20 05:51:23;;;;;;;60.95;22.67;;;;;;;3.49;68.57;99542.97;5064786;28;20025;-73
2022/10/20 05:53:50;;;;;;;52.85;20.13;;;;;;;3.51;68.87;99544.41;5072143;28;20032;-71
2022/10/20 05:56:17;;;;;;;63.80;23.38;;;;;;;3.53;69.27;99547.72;5083727;28;20078;-71
2022/10/20 05:58:43;;;;;;;64.40;22.73;;;;;;;3.55;68.88;99548.31;5068964;28;20032;-71
2022/10/20 06:01:16;;;;;;;52.88;20.25;;;;;;;3.60;69.01;99544.13;5084135;28;20021;-71
2022/10/20 06:03:42;;;;;;;34.80;18.20;;;;;;;3.66;69.18;99551.38;5068029;28;20086;-70
2022/10/20 06:06:07;;;;;;;31.73;15.50;;;;;;;3.67;68.42;99547.59;5072183;28;20028;-71
2022/10/20 06:08:33;;;;;;;33.70;17.65;;;;;;;3.71;69.11;99557.78;5087982;28;20024;-72
2022/10/20 06:11:04;;;;;;;31.50;17.23;;;;;;;3.77;69.41;99556.06;5085966;28;20055;-72
2022/10/20 06:13:30;;;;;;;28.58;16.20;;;;;;;3.83;69.57;99560.59;5069633;28;20510;-72
2022/10/20 06:16:01;;;;;;;32.10;17.38;;;;;;;3.91;68.71;99566.75;5071792;28;20047;-73
2022/10/20 06:18:26;;;;;;;34.45;19.77;;;;;;;3.97;68.74;99565.88;5070684;28;20033;-72
2022/10/20 06:21:01;;;;;;;38.22;21.10;;;;;;;4.02;68.83;99566.03;5077795;28;20042;-73
2022/10/20 06:23:26;;;;;;;35.33;19.05;;;;;;;4.09;69.00;99566.78;5072681;28;20021;-73
2022/10/20 06:25:52;;;;;;;34.42;18.52;;;;;;;4.15;69.03;99570.47;5070951;28;20103;-72
2022/10/20 06:28:17;;;;;;;32.97;19.13;;;;;;;4.20;68.98;99570.63;5075541;28;20020;-73
2022/10/20 06:30:42;;;;;;;31.92;18.80;;;;;;;4.28;69.57;99573.03;5061656;28;20045;-71
2022/10/20 06:33:11;;;;;;;32.08;17.70;;;;;;;4.36;69.87;99574.59;5078595;28;20509;-72
2022/10/20 06:35:36;;;;;;;37.13;20.20;;;;;;;4.44;69.99;99570.78;5079876;28;20027;-71
2022/10/20 06:38:02;;;;;;;33.53;18.52;;;;;;;4.55;69.62;99569.16;5085451;28;20077;-70
2022/10/20 06:40:30;;;;;;;35.72;18.42;;;;;;;4.63;69.73;99566.13;5076261;28;20029;-70
2022/10/20 06:42:55;;;;;;;31.23;17.30;;;;;;;4.68;69.65;99568.16;5065676;28;20535;-71
2022/10/20 06:45:21;;;;;;;29.63;16.73;;;;;;;4.77;69.64;99573.03;5060658;28;20036;-70
2022/10/20 06:47:46;;;;;;;30.98;15.52;;;;;;;4.86;70.40;99570.84;5069254;28;20040;-69
2022/10/20 06:50:11;;;;;;;24.75;15.02;;;;;;;4.94;69.77;99583.25;5069466;28;20024;-69
2022/10/20 06:52:37;;;;;;;27.50;15.30;;;;;;;5.00;69.87;99571.47;5072985;28;20028;-70
2022/10/20 06:55:02;;;;;;;28.90;15.80;;;;;;;5.09;70.10;99566.50;5073298;28;20058;-70
2022/10/20 06:57:31;;;;;;;27.50;16.25;;;;;;;5.18;70.02;99567.00;5063062;28;20509;-73
2022/10/20 06:59:56;;;;;;;33.83;19.75;;;;;;;5.27;69.92;99562.06;5069458;28;20028;-72
2022/10/20 07:02:21;;;;;;;27.27;18.80;;;;;;;5.36;70.60;99558.75;5068116;28;20087;-71
2022/10/20 07:04:48;;;;;;;32.83;18.75;;;;;;;5.46;70.80;99565.53;5067153;28;20394;-70
2022/10/20 07:07:14;;;;;;;28.67;17.95;;;;;;;5.51;70.80;99568.34;5065444;28;20032;-70
2022/10/20 07:09:39;;;;;;;25.13;16.83;;;;;;;5.60;70.25;99563.41;5063529;28;20442;-71
2022/10/20 07:12:05;;;;;;;21.08;14.32;;;;;;;5.66;70.38;99566.00;5069341;28;20040;-71
2022/10/20 07:14:30;;;;;;;22.92;13.77;;;;;;;5.72;70.53;99558.75;5068675;28;20417;-71
2022/10/20 07:16:55;;;;;;;22.30;13.20;;;;;;;5.76;70.48;99550.97;5066667;28;20060;-71
2022/10/20 07:19:21;;;;;;;24.30;15.93;;;;;;;5.78;70.84;99541.47;5068496;28;20459;-72
2022/10/20 07:21:46;;;;;;;23.67;15.43;;;;;;;5.87;70.52;99550.13;5068217;28;20033;-70
2022/10/20 07:24:13;;;;;;;24.13;15.73;;;;;;;5.97;70.87;99552.25;5049671;28;20037;-73
2022/10/20 07:26:40;;;;;;;22.48;14.18;;;;;;;6.05;70.79;99542.91;5063635;28;20029;-72
2022/10/20 07:29:06;;;;;;;17.17;12.50;;;;;;;6.10;70.93;99549.31;5074633;28;20032;-72
2022/10/20 07:31:40;;;;;;;18.63;12.88;;;;;;;6.19;71.25;99543.47;5068451;28;20048;-72
2022/10/20 07:34:07;;;;;;;18.85;12.48;;;;;;;6.28;70.97;99552.13;5065496;28;20469;-72
2022/10/20 07:36:33;;;;;;;21.05;13.25;;;;;;;6.36;71.27;99547.09;5088891;28;20069;-73
2022/10/20 07:39:02;;;;;;;24.52;14.70;;;;;;;6.46;71.01;99551.94;5076187;28;20024;-72
2022/10/20 07:41:28;;;;;;;25.90;16.73;;;;;;;6.56;71.25;99543.13;5072243;28;20101;-72
2022/10/20 07:43:55;;;;;;;24.80;14.77;;;;;;;6.65;71.47;99546.31;5051499;28;20036;-71
2022/10/20 07:46:21;;;;;;;23.33;13.98;;;;;;;6.70;71.24;99551.84;5089160;28;20024;-72
2022/10/20 07:48:46;;;;;;;18.73;12.45;;;;;;;6.75;71.27;99551.09;5052564;28;20647;-72
2022/10/20 07:51:29;;;;;;;17.33;10.93;;;;;;;6.83;71.04;99562.44;5065239;28;20029;-74
2022/10/20 07:54:00;;;;;;;19.95;12.32;;;;;;;6.91;71.23;99552.22;5063959;28;20098;-71
2022/10/20 07:56:32;;;;;;;17.73;11.25;;;;;;;6.97;71.23;99551.25;5076720;28;20584;-71
2022/10/20 07:58:58;;;;;;;19.05;10.63;;;;;;;6.99;71.35;99546.38;5066473;28;20073;-72
2022/10/20 08:01:24;;;;;;;19.88;10.35;;;;;;;7.05;71.30;99548.13;5073980;28;20099;-73
2022/10/20 08:03:49;;;;;;;17.77;9.48;;;;;;;7.10;71.10;99545.47;5070104;28;20916;-73
2022/10/20 08:06:14;;;;;;;13.18;8.45;;;;;;;7.13;71.06;99544.97;5067310;28;20044;-72
2022/10/20 08:08:40;;;;;;;13.85;9.63;;;;;;;7.17;71.23;99547.19;5071523;28;20107;-70
2022/10/20 08:11:05;;;;;;;18.98;11.57;;;;;;;7.25;71.67;99538.59;5066761;28;20024;-72
2022/10/20 08:13:31;;;;;;;16.95;10.88;;;;;;;7.30;71.37;99533.25;5077901;28;20056;-71
2022/10/20 08:15:57;;;;;;;19.13;10.98;;;;;;;7.33;71.11;99540.94;5064994;28;20064;-71
2022/10/20 08:18:22;;;;;;;17.38;11.07;;;;;;;7.39;71.46;99533.63;5065065;28;20104;-71
2022/10/20 08:20:48;;;;;;;14.88;9.30;;;;;;;7.47;71.21;99537.88;5087135;28;20472;-72
2022/10/20 08:23:14;;;;;;;17.85;10.70;;;;;;;7.50;71.30;99540.13;5088537;28;20085;-71
2022/10/20 08:25:40;;;;;;;19.02;11.32;;;;;;;7.55;71.52;99540.16;5080575;28;20024;-72
2022/10/20 08:28:06;;;;;;;22.42;11.65;;;;;;;7.61;71.14;99541.91;5067390;28;20024;-72
2022/10/20 08:30:32;;;;;;;13.93;10.05;;;;;;;7.69;71.18;99533.28;5060644;28;20044;-72
2022/10/20 08:32:58;;;;;;;17.50;10.73;;;;;;;7.78;71.60;99541.06;5071794;28;20021;-71
2022/10/20 08:35:24;;;;;;;14.07;9.40;;;;;;;7.87;71.43;99536.81;5069143;28;20047;-73
2022/10/20 08:37:49;;;;;;;15.43;9.55;;;;;;;7.91;70.96;99537.97;5070354;28;20032;-72
2022/10/20 08:40:18;;;;;;;15.52;9.55;;;;;;;7.97;70.97;99536.13;5042308;28;20013;-72
2022/10/20 08:42:44;;;;;;;21.48;14.15;;;;;;;8.01;71.14;99535.38;5069612;28;20080;-72
2022/10/20 08:45:14;;;;;;;22.13;15.88;;;;;;;8.09;71.03;99528.66;5064573;28;20521;-72
2022/10/20 08:47:39;;;;;;;19.80;13.10;;;;;;;8.16;70.73;99531.19;5074791;28;20021;-73
2022/10/20 08:50:08;;;;;;;16.02;11.20;;;;;;;8.22;71.29;99524.72;5079866;28;20101;-73
2022/10/20 08:52:34;;;;;;;15.50;9.20;;;;;;;8.27;70.65;99521.22;5067467;28;20036;-72
2022/10/20 08:55:03;;;;;;;13.55;9.50;;;;;;;8.28;70.98;99526.44;5066540;28;20479;-72
2022/10/20 08:57:30;;;;;;;13.98;9.13;;;;;;;8.34;70.98;99521.84;5082870;28;20622;-73
2022/10/20 09:00:22;;;;;;;15.60;9.80;;;;;;;8.37;70.67;99524.06;5081237;28;20020;-72
2022/10/20 09:02:49;;;;;;;14.77;9.30;;;;;;;8.42;70.63;99518.66;5074441;28;20097;-72
2022/10/20 09:05:22;;;;;;;13.70;8.77;;;;;;;8.52;70.90;99519.91;5053057;28;20025;-71
2022/10/20 09:07:48;;;;;;;12.18;7.40;;;;;;;8.55;70.69;99516.66;5058587;28;20020;-71
2022/10/20 09:10:20;;;;;;;13.65;8.32;;;;;;;8.59;70.39;99521.34;5092652;28;20031;-73
2022/10/20 09:12:47;;;;;;;14.18;9.27;;;;;;;8.63;70.31;99522.47;5071756;28;20031;-72
2022/10/20 09:15:15;;;;;;;14.20;8.23;;;;;;;8.68;70.32;99513.50;5081112;28;20024;-72
2022/10/20 09:17:48;;;;;;;12.40;7.78;;;;;;;8.72;70.25;99516.56;5072628;28;20420;-72
2022/10/20 09:20:21;;;;;;;13.52;8.63;;;;;;;8.74;69.81;99517.94;5071449;28;20517;-73
2022/10/20 09:22:47;;;;;;;13.93;8.70;;;;;;;8.78;70.49;99515.50;5071589;28;20043;-72
2022/10/20 09:25:24;;;;;;;13.85;8.73;;;;;;;8.85;70.46;99527.06;5071558;28;20033;-72
2022/10/20 09:27:50;;;;;;;12.13;7.97;;;;;;;8.89;69.73;99521.91;5075132;28;20114;-72
2022/10/20 09:30:24;;;;;;;10.85;5.78;;;;;;;8.96;69.71;99521.69;5092375;28;20028;-72
2022/10/20 09:32:50;;;;;;;9.93;6.35;;;;;;;8.99;69.50;99523.91;5071961;28;20044;-71
2022/10/20 09:35:21;;;;;;;9.40;6.20;;;;;;;9.04;69.40;99518.50;5071101;28;20071;-73
2022/10/20 09:37:52;;;;;;;10.10;6.65;;;;;;;9.06;69.22;99519.88;5053791;28;20037;-70
2022/10/20 09:40:18;;;;;;;9.63;6.22;;;;;;;9.09;69.38;99524.81;5071986;28;20786;-72
2022/10/20 09:42:51;;;;;;;12.25;6.88;;;;;;;9.13;68.92;99516.94;5071374;28;20036;-71
2022/10/20 09:45:29;;;;;;;8.00;5.28;;;;;;;9.15;68.23;99517.50;5070949;28;20024;-72
2022/10/20 09:48:02;;;;;;;8.40;5.30;;;;;;;9.18;68.73;99514.22;5050519;28;20095;-72
2022/10/20 09:50:39;;;;;;;7.22;5.15;;;;;;;9.20;68.47;99509.31;5048903;28;20399;-73
2022/10/20 09:53:14;;;;;;;7.18;4.10;;;;;;;9.21;68.24;99513.69;5050984;28;20059;-75
2022/10/20 09:55:46;;;;;;;7.68;4.88;;;;;;;9.24;68.08;99515.09;5050555;28;20056;-74
2022/10/20 09:58:33;;;;;;;8.57;5.25;;;;;;;9.25;67.89;99522.22;5051334;28;20104;-74
2022/10/20 10:01:13;;;;;;;10.25;5.72;;;;;;;9.29;67.28;99504.19;5049276;28;20467;-73
2022/10/20 10:03:40;;;;;;;9.40;6.85;;;;;;;9.34;67.79;99511.63;5047548;28;20029;-72
2022/10/20 10:06:28;;;;;;;13.20;9.75;;;;;;;9.41;67.43;99505.91;5053485;28;20025;-72
2022/10/20 10:08:55;;;;;;;9.15;5.88;;;;;;;9.51;67.97;99506.00;5029143;28;20167;-72
2022/10/20 10:11:27;;;;;;;11.80;6.45;;;;;;;9.58;67.90;99511.25;5049837;28;20070;-72
2022/10/20 10:13:53;;;;;;;9.95;6.25;;;;;;;9.61;67.35;99506.06;5061817;28;20056;-74
2022/10/20 10:16:20;;;;;;;11.60;5.90;;;;;;;9.62;67.29;99504.97;5062131;28;20390;-73
2022/10/20 10:18:55;;;;;;;8.05;4.68;;;;;;;9.66;66.80;99503.34;5060196;28;20032;-72
2022/10/20 10:21:21;;;;;;;7.43;4.90;;;;;;;9.71;66.88;99496.25;5060058;28;20033;-71
2022/10/20 10:23:56;;;;;;;4.18;2.95;;;;;;;9.76;66.04;99493.56;5049576;28;20509;-71
2022/10/20 10:26:38;;;;;;;5.90;3.85;;;;;;;9.79;66.54;99491.09;5050250;28;20057;-72
2022/10/20 10:29:04;;;;;;;6.43;4.32;;;;;;;9.90;66.02;99486.50;5061977;28;20028;-73
2022/10/20 10:31:31;;;;;;;5.93;3.72;;;;;;;9.97;65.50;99486.28;5059778;28;20457;-73
2022/10/20 10:34:16;;;;;;;2.35;1.45;;;;;;;10.06;65.88;99483.84;5085585;28;20042;-71
2022/10/20 10:36:42;;;;;;;6.55;3.00;;;;;;;10.13;65.21;99482.47;5089859;28;20040;-73
2022/10/20 10:39:13;;;;;;;7.18;3.83;;;;;;;10.23;65.60;99480.88;5090626;28;20294;-72
2022/10/20 10:41:55;;;;;;;6.38;4.13;;;;;;;10.26;65.44;99474.88;5090403;28;20382;-72
2022/10/20 10:44:32;;;;;;;3.95;3.00;;;;;;;10.30;64.77;99467.75;5089822;28;20477;-75
2022/10/20 10:47:05;;;;;;;5.30;2.80;;;;;;;10.36;64.94;99465.84;5090163;28;20486;-72
2022/10/20 10:50:02;;;;;;;4.82;2.72;;;;;;;10.43;64.23;99466.44;5089885;28;20554;-73
2022/10/20 10:52:45;;;;;;;3.65;2.55;;;;;;;10.51;64.22;99462.34;5090377;28;20432;-76
2022/10/20 10:55:19;;;;;;;4.78;2.80;;;;;;;10.56;63.70;99462.34;5089701;28;20481;-73
2022/10/20 10:58:00;;;;;;;5.88;3.30;;;;;;;10.54;63.75;99461.78;5089150;28;20051;-73
2022/10/20 11:00:34;;;;;;;3.85;2.70;;;;;;;10.58;62.96;99457.41;5090085;28;20031;-74
2022/10/20 11:03:19;;;;;;;3.58;2.53;;;;;;;10.60;62.45;99446.19;5090189;28;20531;-73
2022/10/20 11:06:03;;;;;;;4.95;2.33;;;;;;;10.64;62.38;99447.25;5089333;28;20020;-72
2022/10/20 11:08:37;;;;;;;4.18;2.28;;;;;;;10.66;61.94;99445.06;5089734;28;20035;-72
2022/10/20 11:11:17;;;;;;;5.22;2.80;;;;;;;10.67;62.54;99441.22;5089778;28;20386;-73
2022/10/20 11:13:49;;;;;;;4.57;3.05;;;;;;;10.70;61.99;99435.19;5088662;28;20024;-72
2022/10/20 11:16:58;;;;;;;3.65;2.40;;;;;;;10.78;61.88;99425.63;5066855;28;20029;-75
2022/10/20 11:19:53;;;;;;;3.35;2.30;;;;;;;10.85;62.54;99421.50;5074126;28;20032;-73
2022/10/20 11:22:49;;;;;;;4.80;2.42;;;;;;;10.94;61.41;99412.72;5047675;28;20036;-73
2022/10/20 11:25:31;;;;;;;5.47;2.60;;;;;;;11.00;61.51;99409.69;5088026;28;20448;-73
2022/10/20 11:27:58;;;;;;;5.43;2.55;;;;;;;11.05;60.63;99405.31;5084152;28;20024;-74
2022/10/20 11:30:26;;;;;;;4.00;2.60;;;;;;;11.13;60.72;99402.00;5068658;28;20020;-73
2022/10/20 11:32:57;;;;;;;4.18;3.13;;;;;;;11.20;60.27;99396.22;5068728;28;20067;-73
2022/10/20 11:35:57;;;;;;;4.70;2.78;;;;;;;11.25;61.17;99388.78;5068014;28;20029;-72
2022/10/20 11:38:33;;;;;;;5.13;3.33;;;;;;;11.34;59.88;99385.47;5065649;28;20028;-73